Overview Statistics Trail Chart Weather Telemetry Raw packets
 

This is the latest recevied weather packets stored in our database for station/object KO4LCK. If no packets are shown the sender has not sent any weather packets the latest 10 day(s).

<< 41 42 43 44 45 46 47 >>
Time Temp. Humidity Pressure Rain* Wind** Luminosity Snow
1788367441 36.11° C 48% 1020.9 hPa 0 mm - 373 W/m² -
1788367140 36.11° C 50% 1020.8 hPa 0 mm - 718 W/m² -
1788366834 35.56° C 49% 1020.9 hPa 0 mm - 707 W/m² -
1788366533 35.56° C 49% 1020.9 hPa 0 mm - 704 W/m² -
1788366229 35.56° C 51% 1020.8 hPa 0 mm - 699 W/m² -
1788365928 35° C 53% 1021 hPa 0 mm - 688 W/m² -
1788365624 36.11° C 49% 1021.3 hPa 0 mm - 676 W/m² -
1788365015 36.11° C 51% 1021.4 hPa 0 mm - 663 W/m² -
1788364713 35.56° C 52% 1021.3 hPa 0 mm - 654 W/m² -
1788364412 35° C 53% 1021.4 hPa 0 mm - 651 W/m² -
1788364107 34.44° C 52% 1021.6 hPa 0 mm - 640 W/m² -
1788363803 34.44° C 52% 1021.3 hPa 0 mm - 631 W/m² -
1788363501 34.44° C 53% 1021.5 hPa 0 mm - 619 W/m² -
1788363201 35° C 54% 1021.4 hPa 0 mm - 613 W/m² -
1788362897 34.44° C 56% 1021.5 hPa 0 mm - 604 W/m² -
1788362593 32.78° C 60% 1021.4 hPa 0 mm - 589 W/m² -
1788362288 33.33° C 57% 1021.4 hPa 0 mm - 585 W/m² -
1788361983 32.78° C 59% 1021.6 hPa 0 mm - 569 W/m² -
1788361678 32.78° C 59% 1021.6 hPa 0 mm - 559 W/m² -
1788361374 32.22° C 59% 1021.4 hPa 0 mm - 541 W/m² -
1788361073 32.22° C 60% 1021.4 hPa 0 mm - 528 W/m² -
1788360769 32.22° C 58% 1021.4 hPa 0 mm - 513 W/m² -
1788360464 32.22° C 59% 1021.3 hPa 0 mm - 499 W/m² -
1788360160 32.22° C 59% 1021.5 hPa 0 mm - 482 W/m² -
1788359860 31.67° C 60% 1021.1 hPa 0 mm - 469 W/m² -

* Rain latest hour (hover to see other rain measurements)
** Current wind speed in m/s (hover to see current wind gust speed)